createdAt,value
2023-05-05T00:02:37.686Z,24.33
2023-05-05T00:05:40.604Z,24.20
2023-05-05T00:08:43.147Z,21.00
2023-05-05T00:11:45.842Z,19.50
2023-05-05T00:14:48.394Z,20.93
2023-05-05T00:17:51.179Z,17.58
2023-05-05T00:20:53.912Z,17.90
2023-05-05T00:23:56.569Z,21.52
2023-05-05T00:26:59.306Z,20.30
2023-05-05T00:30:02.107Z,20.40
2023-05-05T00:33:04.817Z,21.60
2023-05-05T00:36:07.702Z,23.20
2023-05-05T00:39:10.975Z,24.88
2023-05-05T00:42:13.561Z,23.83
2023-05-05T00:45:17.006Z,20.37
2023-05-05T00:48:19.684Z,18.17
2023-05-05T00:51:22.966Z,16.05
2023-05-05T00:54:25.719Z,18.25
2023-05-05T00:57:28.664Z,16.73
2023-05-05T01:00:31.759Z,16.87
2023-05-05T01:03:37.353Z,17.42
2023-05-05T01:07:06.420Z,20.25
2023-05-05T01:10:41.287Z,20.27
2023-05-05T01:13:59.233Z,18.73
2023-05-05T01:17:10.524Z,17.93
2023-05-05T01:20:40.924Z,16.83
2023-05-05T01:24:19.894Z,16.98
2023-05-05T01:27:47.582Z,14.73
2023-05-05T01:31:09.499Z,17.50
2023-05-05T01:34:14.928Z,18.13
2023-05-05T01:37:32.513Z,17.55
2023-05-05T01:40:42.039Z,16.10
2023-05-05T01:43:47.630Z,14.70
2023-05-05T01:46:52.126Z,13.07
2023-05-05T01:49:54.661Z,13.93
2023-05-05T01:52:57.921Z,14.63
2023-05-05T01:56:01.528Z,14.32
2023-05-05T01:59:05.077Z,15.93
2023-05-05T02:02:10.583Z,16.70
2023-05-05T02:05:14.354Z,15.50
2023-05-05T02:08:17.651Z,15.80
2023-05-05T02:11:21.925Z,15.02
2023-05-05T02:14:26.759Z,15.65
2023-05-05T02:17:30.190Z,15.50
2023-05-05T02:20:33.424Z,16.53
2023-05-05T02:23:36.547Z,15.13
2023-05-05T02:26:40.814Z,14.75
2023-05-05T02:29:58.058Z,15.10
2023-05-05T02:33:09.484Z,14.83
2023-05-05T02:36:26.231Z,13.93
2023-05-05T02:39:47.377Z,13.82
2023-05-05T02:42:55.937Z,13.95
2023-05-05T02:46:03.969Z,14.63
2023-05-05T02:49:08.169Z,14.93
2023-05-05T02:52:12.359Z,16.53
2023-05-05T02:55:16.705Z,16.67
2023-05-05T02:58:29.344Z,15.48
2023-05-05T03:01:53.886Z,15.32
2023-05-05T03:05:11.119Z,13.97
2023-05-05T03:08:27.177Z,15.17
2023-05-05T03:11:36.268Z,15.05
2023-05-05T03:14:43.454Z,12.90
2023-05-05T03:17:50.632Z,12.02
2023-05-05T03:20:53.631Z,12.07
2023-05-05T03:23:58.403Z,12.67
2023-05-05T03:27:01.628Z,14.38
2023-05-05T03:30:09.822Z,11.40
2023-05-05T03:33:20.429Z,9.85
2023-05-05T03:36:23.128Z,8.67
2023-05-05T03:39:26.365Z,10.40
2023-05-05T03:42:30.117Z,10.07
2023-05-05T03:45:33.298Z,10.23
2023-05-05T03:48:36.163Z,10.27
2023-05-05T03:51:39.175Z,10.43
2023-05-05T03:54:42.623Z,11.30
2023-05-05T03:57:46.138Z,10.90
2023-05-05T04:00:48.761Z,11.48
2023-05-05T04:03:52.300Z,11.10
2023-05-05T04:06:56.036Z,11.00
2023-05-05T04:09:58.616Z,11.67
2023-05-05T04:13:01.582Z,11.88
2023-05-05T04:16:06.630Z,10.73
2023-05-05T04:19:09.374Z,10.90
2023-05-05T04:22:11.997Z,10.53
2023-05-05T04:25:14.993Z,11.20
2023-05-05T04:28:19.592Z,11.90
2023-05-05T04:31:23.825Z,12.20
2023-05-05T04:34:27.278Z,13.20
2023-05-05T04:37:30.436Z,14.00
2023-05-05T04:40:38.237Z,13.67
2023-05-05T04:43:41.622Z,15.48
2023-05-05T04:46:44.504Z,13.80
2023-05-05T04:49:47.198Z,13.40
2023-05-05T04:52:51.378Z,12.33
2023-05-05T04:55:55.326Z,13.57
2023-05-05T04:58:57.905Z,16.13
2023-05-05T05:02:00.892Z,15.20
2023-05-05T05:05:04.035Z,15.82
2023-05-05T05:08:06.820Z,17.87
2023-05-05T05:11:09.495Z,19.50
2023-05-05T05:14:12.583Z,17.20
2023-05-05T05:17:15.554Z,17.40
2023-05-05T05:20:19.206Z,17.70
2023-05-05T05:23:22.965Z,16.70
2023-05-05T05:26:25.752Z,16.13
2023-05-05T05:29:28.540Z,17.80
2023-05-05T05:32:32.891Z,16.80
2023-05-05T05:35:35.888Z,15.00
2023-05-05T05:38:39.450Z,13.67
2023-05-05T05:41:43.080Z,16.90
2023-05-05T05:44:46.243Z,14.38
2023-05-05T05:47:49.713Z,13.65
2023-05-05T05:50:52.858Z,14.40
2023-05-05T05:54:03.706Z,15.23
2023-05-05T05:57:07.104Z,15.53
2023-05-05T06:00:10.910Z,15.57
2023-05-05T06:03:38.171Z,17.02
2023-05-05T06:06:44.827Z,14.45
2023-05-05T06:09:48.239Z,14.27
2023-05-05T06:12:51.021Z,14.53
2023-05-05T06:15:54.415Z,15.68
2023-05-05T06:18:57.185Z,14.27
2023-05-05T06:22:00.465Z,14.32
2023-05-05T06:25:03.606Z,14.37
2023-05-05T06:28:06.393Z,13.20
2023-05-05T06:31:09.262Z,13.68
2023-05-05T06:34:12.282Z,13.05
2023-05-05T06:37:15.318Z,13.98
2023-05-05T06:40:18.510Z,13.87
2023-05-05T06:43:22.107Z,13.10
2023-05-05T06:46:30.242Z,13.90
2023-05-05T06:49:33.294Z,13.13
2023-05-05T06:52:36.249Z,12.98
2023-05-05T06:55:39.143Z,14.00
2023-05-05T06:58:42.429Z,13.53
2023-05-05T07:01:52.025Z,13.02
2023-05-05T07:04:55.700Z,14.65
2023-05-05T07:08:01.851Z,13.18
2023-05-05T07:11:04.786Z,14.63
2023-05-05T07:14:10.515Z,13.37
2023-05-05T07:17:13.460Z,13.18
2023-05-05T07:20:16.520Z,13.07
2023-05-05T07:23:19.257Z,13.75
2023-05-05T07:26:22.129Z,14.20
2023-05-05T07:29:25.038Z,13.93
2023-05-05T07:32:29.938Z,14.45
2023-05-05T07:35:32.758Z,15.10
2023-05-05T07:38:35.455Z,14.45
2023-05-05T07:41:38.178Z,13.40
2023-05-05T07:44:40.902Z,13.47
2023-05-05T07:47:43.952Z,12.90
2023-05-05T07:50:48.659Z,12.40
2023-05-05T07:53:51.650Z,12.40
2023-05-05T07:56:54.975Z,13.20
2023-05-05T07:59:59.046Z,13.00
2023-05-05T08:03:01.889Z,12.52
2023-05-05T08:06:09.640Z,11.07
2023-05-05T08:09:12.404Z,12.43
2023-05-05T08:12:15.493Z,11.47
2023-05-05T08:15:18.415Z,10.80
2023-05-05T08:18:21.325Z,11.50
2023-05-05T08:21:24.065Z,10.70
2023-05-05T08:24:27.521Z,11.30
2023-05-05T08:27:30.619Z,10.77
2023-05-05T08:30:33.349Z,11.07
2023-05-05T08:33:36.142Z,10.15
2023-05-05T08:36:39.133Z,9.27
2023-05-05T08:39:43.366Z,9.43
2023-05-05T08:42:47.002Z,9.50
2023-05-05T08:45:53.991Z,7.83
2023-05-05T08:48:57.890Z,6.40
2023-05-05T08:52:01.878Z,6.85
2023-05-05T08:55:25.722Z,7.40
2023-05-05T08:58:30.680Z,8.03
2023-05-05T09:01:34.159Z,7.27
2023-05-05T09:04:37.254Z,6.75
2023-05-05T09:07:44.245Z,6.63
2023-05-05T09:10:49.171Z,6.68
2023-05-05T09:13:51.954Z,5.73
2023-05-05T09:16:55.172Z,6.33
2023-05-05T09:20:04.894Z,6.10
2023-05-05T09:23:12.911Z,6.40
2023-05-05T09:26:15.879Z,6.53
2023-05-05T09:29:22.762Z,7.70
2023-05-05T09:32:26.320Z,6.10
2023-05-05T09:35:47.832Z,5.93
2023-05-05T09:39:08.952Z,6.00
2023-05-05T09:42:20.972Z,5.93
2023-05-05T09:45:23.700Z,5.10
2023-05-05T09:48:31.567Z,5.67
2023-05-05T09:51:34.813Z,5.20
2023-05-05T09:54:37.794Z,5.53
2023-05-05T09:57:41.070Z,5.82
2023-05-05T10:00:44.313Z,6.17
2023-05-05T10:03:53.874Z,5.87
2023-05-05T10:06:58.127Z,6.05
2023-05-05T10:10:01.001Z,5.53
2023-05-05T10:13:04.137Z,5.50
2023-05-05T10:16:11.616Z,5.40
2023-05-05T10:19:16.551Z,5.13
2023-05-05T10:22:22.918Z,4.82
2023-05-05T10:25:33.771Z,5.65
2023-05-05T10:32:56.931Z,5.43
2023-05-05T10:36:00.888Z,5.20
2023-05-05T10:39:03.556Z,5.28
2023-05-05T10:42:06.547Z,5.35
2023-05-05T10:45:09.818Z,5.47
2023-05-05T10:48:19.484Z,4.57
2023-05-05T10:51:40.330Z,4.77
2023-05-05T10:54:55.916Z,5.03
2023-05-05T10:57:58.595Z,4.65
2023-05-05T11:01:01.408Z,4.80
2023-05-05T11:04:20.394Z,5.33
2023-05-05T11:07:24.089Z,5.00
2023-05-05T11:10:27.068Z,5.00
2023-05-05T11:13:30.291Z,4.28
2023-05-05T11:16:48.006Z,4.35
2023-05-05T11:19:52.396Z,4.20
2023-05-05T11:23:04.292Z,4.87
2023-05-05T11:26:07.362Z,4.47
2023-05-05T11:29:10.011Z,4.20
2023-05-05T11:32:16.080Z,4.00
2023-05-05T11:35:18.948Z,3.97
2023-05-05T11:38:43.244Z,4.10
2023-05-05T11:42:10.996Z,3.95
2023-05-05T11:45:24.099Z,4.20
2023-05-05T11:48:27.498Z,4.60
2023-05-05T11:51:31.112Z,4.80
2023-05-05T11:54:36.807Z,4.53
2023-05-05T11:57:39.633Z,4.90
2023-05-05T12:00:42.938Z,4.88
2023-05-05T12:03:46.280Z,4.22
2023-05-05T12:06:49.306Z,4.77
2023-05-05T12:09:52.359Z,4.07
2023-05-05T12:12:55.657Z,4.00
2023-05-05T12:16:14.415Z,3.88
2023-05-05T12:19:17.214Z,4.63
2023-05-05T12:22:20.810Z,3.93
2023-05-05T12:25:23.817Z,3.97
2023-05-05T12:28:42.628Z,3.30
2023-05-05T12:31:45.458Z,3.00
2023-05-05T12:34:49.287Z,3.53
2023-05-05T12:37:52.022Z,3.73
2023-05-05T12:40:56.155Z,4.17
2023-05-05T12:43:59.724Z,3.90
2023-05-05T12:47:02.560Z,4.20
2023-05-05T12:50:06.010Z,3.75
2023-05-05T12:53:09.203Z,3.50
2023-05-05T12:56:34.851Z,4.50
2023-05-05T12:59:37.810Z,3.65
2023-05-05T13:02:40.661Z,3.17
2023-05-05T13:05:43.578Z,3.85
2023-05-05T13:08:46.373Z,3.73
2023-05-05T13:11:49.252Z,3.80
2023-05-05T13:14:51.975Z,3.40
2023-05-05T13:18:01.740Z,3.55
2023-05-05T13:21:04.752Z,3.60
2023-05-05T13:24:23.482Z,3.63
2023-05-05T13:27:28.736Z,4.93
2023-05-05T13:30:31.466Z,4.07
2023-05-05T13:33:35.235Z,4.38
2023-05-05T13:36:38.131Z,4.43
2023-05-05T13:39:41.121Z,4.03
2023-05-05T13:42:44.271Z,4.13
2023-05-05T13:45:47.160Z,4.35
2023-05-05T13:48:52.486Z,4.03
2023-05-05T13:51:59.297Z,3.70
2023-05-05T13:55:01.970Z,3.70
2023-05-05T13:58:04.810Z,3.70
2023-05-05T14:01:07.766Z,4.57
2023-05-05T14:04:10.881Z,4.45
2023-05-05T14:07:13.911Z,4.22
2023-05-05T14:10:16.839Z,4.77
2023-05-05T14:13:21.954Z,4.43
2023-05-05T14:16:25.111Z,4.60
2023-05-05T14:19:28.180Z,4.72
2023-05-05T14:22:31.358Z,4.85
2023-05-05T14:25:34.323Z,4.60
2023-05-05T14:28:37.231Z,3.97
2023-05-05T14:31:40.266Z,4.18
2023-05-05T14:34:43.077Z,4.28
2023-05-05T14:37:45.901Z,4.32
2023-05-05T14:40:48.742Z,4.00
2023-05-05T14:43:51.453Z,4.80
2023-05-05T14:46:54.553Z,4.43
2023-05-05T14:49:57.265Z,5.20
2023-05-05T14:53:00.149Z,4.20
2023-05-05T14:56:03.035Z,4.67
2023-05-05T14:59:05.996Z,4.13
2023-05-05T15:02:08.854Z,4.22
2023-05-05T15:05:12.086Z,4.68
2023-05-05T15:08:15.571Z,4.30
2023-05-05T15:11:18.463Z,3.73
2023-05-05T15:14:21.349Z,4.33
2023-05-05T15:17:24.159Z,3.80
2023-05-05T15:20:27.046Z,3.40
2023-05-05T15:23:29.993Z,4.35
2023-05-05T15:26:32.993Z,3.80
2023-05-05T15:29:35.777Z,4.37
2023-05-05T15:32:38.802Z,3.95
2023-05-05T15:35:41.763Z,4.22
2023-05-05T15:38:44.639Z,4.35
2023-05-05T15:41:47.443Z,4.20
2023-05-05T15:44:50.745Z,3.37
2023-05-05T15:47:54.104Z,3.65
2023-05-05T15:50:59.861Z,3.50
2023-05-05T15:54:02.748Z,4.57
2023-05-05T15:57:05.645Z,4.30
2023-05-05T16:00:16.038Z,4.20
2023-05-05T16:03:21.148Z,4.60
2023-05-05T16:06:27.495Z,4.97
2023-05-05T16:09:30.536Z,6.68
2023-05-05T16:12:33.527Z,4.80
2023-05-05T16:15:36.340Z,4.67
2023-05-05T16:18:39.079Z,4.78
2023-05-05T16:21:41.926Z,4.38
2023-05-05T16:24:44.923Z,4.63
2023-05-05T16:27:47.786Z,4.23
2023-05-05T16:30:50.530Z,4.67
2023-05-05T16:33:53.588Z,4.15
2023-05-05T16:36:56.806Z,4.45
2023-05-05T16:40:01.417Z,4.32
2023-05-05T16:43:07.622Z,4.97
2023-05-05T16:46:10.457Z,4.20
2023-05-05T16:49:13.386Z,5.53
2023-05-05T16:52:16.312Z,4.28
2023-05-05T16:55:19.370Z,4.35
2023-05-05T16:58:25.476Z,4.63
2023-05-05T17:01:28.630Z,3.77
2023-05-05T17:04:31.268Z,4.63
2023-05-05T17:07:33.916Z,4.55
2023-05-05T17:10:36.930Z,4.47
2023-05-05T17:13:39.581Z,4.90
2023-05-05T17:16:42.549Z,5.10
2023-05-05T17:19:45.534Z,4.80
2023-05-05T17:22:48.409Z,5.25
2023-05-05T17:25:51.703Z,5.45
2023-05-05T17:28:54.472Z,5.33
2023-05-05T17:31:57.264Z,6.77
2023-05-05T17:34:59.973Z,6.28
2023-05-05T17:38:02.810Z,5.45
2023-05-05T17:41:06.534Z,5.93
2023-05-05T17:44:09.288Z,5.30
2023-05-05T17:47:11.993Z,7.20
2023-05-05T17:50:14.706Z,6.50
2023-05-05T17:53:17.435Z,6.00
2023-05-05T17:56:20.352Z,6.20
2023-05-05T17:59:23.273Z,6.20
2023-05-05T18:02:26.287Z,5.83
2023-05-05T18:05:29.998Z,5.63
2023-05-05T18:08:32.681Z,6.93
2023-05-05T18:11:35.402Z,5.75
2023-05-05T18:14:38.083Z,7.23
2023-05-05T18:17:40.793Z,5.73
2023-05-05T18:20:44.490Z,6.03
2023-05-05T18:23:47.226Z,5.88
2023-05-05T18:26:51.211Z,5.60
2023-05-05T18:29:54.125Z,6.37
2023-05-05T18:32:56.957Z,6.30
2023-05-05T18:35:59.776Z,6.35
2023-05-05T18:39:02.718Z,6.97
2023-05-05T18:42:05.593Z,7.72
2023-05-05T18:45:09.273Z,8.00
2023-05-05T18:48:12.229Z,8.40
2023-05-05T18:51:15.048Z,11.57
2023-05-05T18:54:17.898Z,11.18
2023-05-05T18:57:21.367Z,13.18
2023-05-05T19:00:24.589Z,14.63
2023-05-05T19:03:27.317Z,15.67
2023-05-05T19:06:30.247Z,15.73
2023-05-05T19:09:32.942Z,12.35
2023-05-05T19:12:36.468Z,12.43
2023-05-05T19:15:39.226Z,11.50
2023-05-05T19:18:42.034Z,13.07
2023-05-05T19:21:45.149Z,13.25
2023-05-05T19:24:47.886Z,15.48
2023-05-05T19:27:50.703Z,17.75
2023-05-05T19:30:53.545Z,14.97
2023-05-05T19:34:01.362Z,15.93
2023-05-05T19:37:04.084Z,15.15
2023-05-05T19:40:07.555Z,14.98
2023-05-05T19:43:10.515Z,17.17
2023-05-05T19:46:14.642Z,24.03
2023-05-05T19:49:17.487Z,20.97
2023-05-05T19:52:22.728Z,15.25
2023-05-05T19:55:25.922Z,12.88
2023-05-05T19:58:28.861Z,12.23
2023-05-05T20:01:33.099Z,10.97
2023-05-05T20:04:36.199Z,10.53
2023-05-05T20:07:38.926Z,10.20
2023-05-05T20:10:41.772Z,11.32
2023-05-05T20:13:45.055Z,11.10
2023-05-05T20:16:48.581Z,12.03
2023-05-05T20:19:51.654Z,14.37
2023-05-05T20:22:54.409Z,12.48
2023-05-05T20:25:57.497Z,12.68
2023-05-05T20:29:00.306Z,11.18
2023-05-05T20:32:03.304Z,11.87
2023-05-05T20:35:06.597Z,11.80
2023-05-05T20:38:09.944Z,10.90
2023-05-05T20:41:12.976Z,11.30
2023-05-05T20:44:15.819Z,11.75
2023-05-05T20:47:18.643Z,11.40
2023-05-05T20:50:21.588Z,10.93
2023-05-05T20:53:25.569Z,12.15
2023-05-05T20:56:28.438Z,11.95
2023-05-05T20:59:32.608Z,12.40
2023-05-05T21:02:35.747Z,12.67
2023-05-05T21:05:40.215Z,13.37
2023-05-05T21:08:42.984Z,13.90
2023-05-05T21:11:45.986Z,14.15
2023-05-05T21:14:48.848Z,15.07
2023-05-05T21:17:51.895Z,13.70
2023-05-05T21:20:54.720Z,13.33
2023-05-05T21:23:58.225Z,13.05
2023-05-05T21:27:01.133Z,13.20
2023-05-05T21:30:07.750Z,13.20
2023-05-05T21:33:12.326Z,15.40
2023-05-05T21:36:17.636Z,15.43
2023-05-05T21:39:20.410Z,15.13
2023-05-05T21:42:23.192Z,16.10
2023-05-05T21:45:26.036Z,18.40
2023-05-05T21:48:28.945Z,20.40
2023-05-05T21:51:31.788Z,19.30
2023-05-05T21:54:34.544Z,20.55
2023-05-05T21:57:37.369Z,19.17
2023-05-05T22:00:41.688Z,17.85
2023-05-05T22:03:44.552Z,18.43
2023-05-05T22:06:47.370Z,17.10
2023-05-05T22:09:50.205Z,17.60
2023-05-05T22:12:53.065Z,17.27
2023-05-05T22:15:55.899Z,16.38
2023-05-05T22:18:59.114Z,15.87
2023-05-05T22:22:02.872Z,14.27
2023-05-05T22:25:06.347Z,14.52
2023-05-05T22:28:11.575Z,13.57
2023-05-05T22:31:14.467Z,14.00
2023-05-05T22:34:18.869Z,14.37
2023-05-05T22:37:21.668Z,14.30
2023-05-05T22:40:24.449Z,15.48
2023-05-05T22:43:27.264Z,15.00
2023-05-05T22:46:30.391Z,15.32
2023-05-05T22:49:33.485Z,15.80
2023-05-05T22:52:36.768Z,14.27
2023-05-05T22:55:39.669Z,15.00
2023-05-05T22:58:42.535Z,13.85
2023-05-05T23:01:45.299Z,15.93
2023-05-05T23:04:48.264Z,17.27
2023-05-05T23:07:51.251Z,16.47
2023-05-05T23:10:54.159Z,16.30
2023-05-05T23:13:57.275Z,16.23
2023-05-05T23:17:00.266Z,17.60
2023-05-05T23:20:04.439Z,17.93
2023-05-05T23:23:07.292Z,18.10
2023-05-05T23:26:10.118Z,19.02
2023-05-05T23:29:12.908Z,18.08
2023-05-05T23:32:15.928Z,18.63
2023-05-05T23:35:19.135Z,22.33
2023-05-05T23:38:22.011Z,24.77
2023-05-05T23:41:24.924Z,23.58
2023-05-05T23:44:27.895Z,19.77
2023-05-05T23:47:30.799Z,17.77
2023-05-05T23:50:33.592Z,19.23
2023-05-05T23:53:36.421Z,19.17
2023-05-05T23:56:40.880Z,20.85
2023-05-05T23:59:43.692Z,24.17
